createdAt,value
2019-01-30T00:00:21.393Z,67.00
2019-01-30T00:02:53.879Z,67.00
2019-01-30T00:05:26.375Z,67.00
2019-01-30T00:07:58.839Z,66.90
2019-01-30T00:10:31.723Z,66.90
2019-01-30T00:13:04.218Z,67.00
2019-01-30T00:15:36.771Z,68.50
2019-01-30T00:20:40.827Z,94.10
2019-01-30T00:23:13.286Z,80.50
2019-01-30T00:25:45.826Z,67.50
2019-01-30T00:28:18.278Z,66.90
2019-01-30T00:30:50.849Z,66.90
2019-01-30T00:33:23.408Z,72.20
2019-01-30T00:35:55.914Z,76.00
2019-01-30T00:38:28.412Z,67.20
2019-01-30T00:41:00.910Z,66.60
2019-01-30T00:43:33.411Z,66.30
2019-01-30T00:46:06.021Z,66.30
2019-01-30T00:48:38.534Z,66.00
2019-01-30T00:51:11.103Z,66.00
2019-01-30T00:53:43.577Z,66.30
2019-01-30T00:56:16.069Z,82.50
2019-01-30T00:58:48.551Z,65.60
2019-01-30T01:01:21.036Z,65.40
2019-01-30T01:03:53.576Z,65.20
2019-01-30T01:06:26.095Z,65.10
2019-01-30T01:08:58.631Z,65.20
2019-01-30T01:11:31.096Z,64.90
2019-01-30T01:14:03.696Z,65.10
2019-01-30T01:16:36.180Z,64.90
2019-01-30T01:19:08.780Z,65.10
2019-01-30T01:21:41.425Z,65.00
2019-01-30T01:24:13.926Z,65.30
2019-01-30T01:26:46.394Z,65.20
2019-01-30T01:29:18.872Z,65.10
2019-01-30T01:31:51.429Z,65.00
2019-01-30T01:34:23.915Z,65.10
2019-01-30T01:36:57.415Z,65.00
2019-01-30T01:39:29.939Z,64.90
2019-01-30T01:42:02.443Z,64.70
2019-01-30T01:44:34.956Z,64.70
2019-01-30T01:47:07.459Z,64.70
2019-01-30T01:49:39.960Z,64.60
2019-01-30T01:52:12.528Z,64.50
2019-01-30T01:54:45.039Z,64.50
2019-01-30T01:57:17.543Z,64.40
2019-01-30T01:59:50.031Z,64.20
2019-01-30T02:02:22.554Z,81.80
2019-01-30T02:04:55.001Z,64.30
2019-01-30T02:07:27.567Z,64.50
2019-01-30T02:10:00.371Z,64.50
2019-01-30T02:12:32.831Z,64.30
2019-01-30T02:15:05.387Z,64.10
2019-01-30T02:17:37.912Z,64.10
2019-01-30T02:20:12.517Z,63.80
2019-01-30T02:22:45.057Z,63.70
2019-01-30T02:25:17.540Z,63.90
2019-01-30T02:27:50.081Z,63.90
2019-01-30T02:30:23.950Z,63.90
2019-01-30T02:32:57.060Z,78.40
2019-01-30T02:35:29.509Z,78.60
2019-01-30T02:38:02.058Z,76.70
2019-01-30T02:40:34.549Z,76.00
2019-01-30T02:43:07.045Z,76.30
2019-01-30T02:45:39.550Z,75.90
2019-01-30T02:48:12.120Z,75.90
2019-01-30T02:50:44.626Z,76.10
2019-01-30T02:55:48.643Z,76.30
2019-01-30T03:00:59.317Z,75.70
2019-01-30T03:03:26.348Z,75.60
2019-01-30T03:05:58.840Z,75.70
2019-01-30T03:08:31.408Z,75.70
2019-01-30T03:11:04.230Z,63.50
2019-01-30T03:13:36.776Z,63.60
2019-01-30T03:16:09.272Z,63.60
2019-01-30T03:18:41.885Z,63.60
2019-01-30T03:21:14.359Z,63.60
2019-01-30T03:23:46.970Z,63.60
2019-01-30T03:26:19.560Z,63.60
2019-01-30T03:28:52.184Z,63.50
2019-01-30T03:31:24.687Z,63.40
2019-01-30T03:33:57.206Z,63.40
2019-01-30T03:36:29.705Z,63.10
2019-01-30T03:39:02.231Z,63.00
2019-01-30T03:41:34.730Z,92.00
2019-01-30T03:44:07.338Z,85.90
2019-01-30T03:46:39.832Z,83.40
2019-01-30T03:49:12.438Z,82.00
2019-01-30T03:51:44.933Z,75.30
2019-01-30T03:54:17.775Z,70.80
2019-01-30T03:56:50.216Z,70.70
2019-01-30T03:59:22.859Z,71.40
2019-01-30T04:01:56.449Z,72.80
2019-01-30T04:04:28.958Z,72.10
2019-01-30T04:07:01.451Z,73.80
2019-01-30T04:09:33.963Z,76.10
2019-01-30T04:12:06.458Z,81.10
2019-01-30T04:14:38.960Z,80.80
2019-01-30T04:17:11.450Z,62.90
2019-01-30T04:19:43.972Z,63.50
2019-01-30T04:22:16.426Z,63.40
2019-01-30T04:24:48.928Z,63.20
2019-01-30T04:27:21.465Z,63.10
2019-01-30T04:29:53.930Z,80.90
2019-01-30T04:32:26.423Z,64.50
2019-01-30T04:34:58.976Z,79.30
2019-01-30T04:37:31.455Z,62.60
2019-01-30T04:40:03.971Z,83.90
2019-01-30T04:42:36.407Z,78.10
2019-01-30T04:45:11.078Z,63.20
2019-01-30T04:47:43.564Z,79.40
2019-01-30T04:50:16.096Z,71.00
2019-01-30T04:52:48.958Z,73.20
2019-01-30T04:55:21.463Z,76.20
2019-01-30T04:57:53.978Z,84.40
2019-01-30T05:00:27.442Z,68.10
2019-01-30T05:02:59.943Z,75.00
2019-01-30T05:05:32.449Z,60.60
2019-01-30T05:08:04.900Z,77.20
2019-01-30T05:10:37.427Z,80.90
2019-01-30T05:13:10.163Z,60.70
2019-01-30T05:15:42.953Z,87.40
2019-01-30T05:18:15.798Z,78.70
2019-01-30T05:20:48.800Z,79.80
2019-01-30T05:23:21.608Z,85.20
2019-01-30T05:25:54.220Z,90.50
2019-01-30T05:28:26.818Z,80.70
2019-01-30T05:30:59.415Z,77.60
2019-01-30T05:33:31.894Z,90.40
2019-01-30T05:36:04.365Z,67.60
2019-01-30T05:38:36.957Z,59.00
2019-01-30T05:41:09.490Z,58.90
2019-01-30T05:43:42.560Z,59.00
2019-01-30T05:46:15.195Z,58.70
2019-01-30T05:48:47.840Z,63.10
2019-01-30T05:51:20.359Z,70.50
2019-01-30T05:53:53.013Z,70.50
2019-01-30T05:56:25.514Z,72.10
2019-01-30T05:58:58.196Z,59.30
2019-01-30T06:01:30.949Z,76.10
2019-01-30T06:04:03.482Z,59.50
2019-01-30T06:06:36.210Z,59.70
2019-01-30T06:09:09.519Z,59.70
2019-01-30T06:14:15.571Z,59.10
2019-01-30T06:16:48.260Z,59.50
2019-01-30T06:19:21.087Z,77.30
2019-01-30T06:21:55.955Z,95.40
2019-01-30T06:24:28.609Z,72.80
2019-01-30T06:27:01.182Z,63.60
2019-01-30T06:29:33.636Z,71.30
2019-01-30T06:32:06.177Z,60.70
2019-01-30T06:34:38.727Z,60.90
2019-01-30T06:37:12.820Z,61.00
2019-01-30T06:39:45.380Z,60.90
2019-01-30T06:42:17.878Z,60.90
2019-01-30T06:44:50.520Z,63.50
2019-01-30T06:47:23.010Z,60.90
2019-01-30T06:49:55.567Z,61.20
2019-01-30T06:52:28.152Z,61.90
2019-01-30T06:55:00.682Z,61.80
2019-01-30T06:57:33.200Z,62.10
2019-01-30T07:00:05.684Z,61.60
2019-01-30T07:02:38.283Z,61.40
2019-01-30T07:05:10.767Z,59.80
2019-01-30T07:07:43.407Z,61.90
2019-01-30T07:10:18.172Z,62.40
2019-01-30T07:12:51.371Z,78.10
2019-01-30T07:15:23.964Z,68.70
2019-01-30T07:17:56.413Z,59.80
2019-01-30T07:20:31.124Z,61.00
2019-01-30T07:23:02.570Z,61.30
2019-01-30T07:25:36.815Z,60.40
2019-01-30T07:28:08.962Z,60.70
2019-01-30T07:30:41.457Z,59.70
2019-01-30T07:33:13.920Z,59.90
2019-01-30T07:35:46.553Z,60.20
2019-01-30T07:38:19.048Z,60.50
2019-01-30T07:40:53.887Z,60.80
2019-01-30T07:43:26.419Z,61.10
2019-01-30T07:45:58.915Z,61.40
2019-01-30T07:48:31.409Z,61.50
2019-01-30T07:51:03.959Z,61.70
2019-01-30T07:53:36.434Z,62.00
2019-01-30T07:56:08.910Z,61.90
2019-01-30T07:58:41.480Z,61.60
2019-01-30T08:01:17.770Z,61.50
2019-01-30T08:03:50.306Z,61.60
2019-01-30T08:06:22.820Z,61.70
2019-01-30T08:08:55.319Z,62.00
2019-01-30T08:11:27.766Z,62.30
2019-01-30T08:14:02.013Z,62.40
2019-01-30T08:16:34.057Z,62.80
2019-01-30T08:19:06.596Z,62.90
2019-01-30T08:21:39.224Z,63.30
2019-01-30T08:24:11.885Z,63.20
2019-01-30T08:26:44.403Z,63.40
2019-01-30T08:29:17.354Z,63.70
2019-01-30T08:31:50.156Z,63.90
2019-01-30T08:34:22.787Z,64.10
2019-01-30T08:36:55.294Z,64.40
2019-01-30T08:39:27.943Z,64.70
2019-01-30T08:42:00.428Z,64.90
2019-01-30T08:44:32.954Z,65.10
2019-01-30T08:47:05.393Z,65.20
2019-01-30T08:49:40.259Z,65.30
2019-01-30T08:52:12.670Z,65.50
2019-01-30T08:54:45.229Z,65.60
2019-01-30T08:57:17.781Z,84.00
2019-01-30T08:59:50.246Z,68.50
2019-01-30T09:02:22.879Z,97.90
2019-01-30T09:04:55.423Z,68.40
2019-01-30T09:07:27.923Z,67.90
2019-01-30T09:10:00.444Z,68.10
2019-01-30T09:12:32.900Z,68.80
2019-01-30T09:15:05.341Z,68.20
2019-01-30T09:17:37.872Z,71.00
2019-01-30T09:20:12.457Z,71.70
2019-01-30T09:22:46.221Z,67.30
2019-01-30T09:25:29.261Z,67.20
2019-01-30T09:28:02.543Z,67.30
2019-01-30T09:30:36.987Z,67.20
2019-01-30T09:33:10.526Z,67.20
2019-01-30T09:35:43.167Z,67.30
2019-01-30T09:38:15.623Z,67.40
2019-01-30T09:40:48.205Z,67.40
2019-01-30T09:43:20.725Z,83.20
2019-01-30T09:45:53.348Z,67.50
2019-01-30T09:48:27.205Z,67.50
2019-01-30T09:50:59.830Z,67.50
2019-01-30T09:53:32.399Z,67.50
2019-01-30T09:56:04.978Z,67.50
2019-01-30T09:58:37.487Z,67.60
2019-01-30T10:01:10.137Z,67.60
2019-01-30T10:03:42.656Z,67.60
2019-01-30T10:06:15.333Z,82.60
2019-01-30T10:08:47.936Z,67.70
2019-01-30T10:11:20.592Z,67.80
2019-01-30T10:13:53.187Z,82.70
2019-01-30T10:16:25.875Z,67.90
2019-01-30T10:18:58.638Z,68.00
2019-01-30T10:21:31.195Z,68.10
2019-01-30T10:24:03.706Z,68.10
2019-01-30T10:26:36.322Z,67.90
2019-01-30T10:29:08.892Z,83.00
2019-01-30T10:31:41.409Z,83.90
2019-01-30T10:34:14.018Z,82.00
2019-01-30T10:36:48.606Z,82.30
2019-01-30T10:39:21.245Z,82.50
2019-01-30T10:41:55.553Z,69.20
2019-01-30T10:44:27.625Z,68.40
2019-01-30T10:47:00.253Z,83.40
2019-01-30T10:49:32.771Z,81.10
2019-01-30T10:52:05.380Z,82.50
2019-01-30T10:54:37.920Z,68.80
2019-01-30T10:57:10.608Z,83.60
2019-01-30T10:59:43.161Z,68.60
2019-01-30T11:02:15.804Z,68.70
2019-01-30T11:04:48.376Z,69.10
2019-01-30T11:07:21.041Z,84.50
2019-01-30T11:09:54.619Z,69.10
2019-01-30T11:12:27.229Z,69.00
2019-01-30T11:14:59.783Z,69.20
2019-01-30T11:20:14.830Z,83.60
2019-01-30T11:22:47.444Z,82.60
2019-01-30T11:25:24.912Z,83.90
2019-01-30T11:27:57.449Z,84.90
2019-01-30T11:30:29.997Z,69.20
2019-01-30T11:33:02.590Z,82.10
2019-01-30T11:35:35.221Z,83.60
2019-01-30T11:38:09.020Z,69.20
2019-01-30T11:40:41.391Z,84.40
2019-01-30T11:43:13.842Z,69.30
2019-01-30T11:45:47.006Z,69.40
2019-01-30T11:48:19.519Z,84.40
2019-01-30T11:50:52.135Z,83.70
2019-01-30T11:53:24.634Z,83.50
2019-01-30T11:55:57.357Z,69.40
2019-01-30T11:58:29.874Z,69.50
2019-01-30T12:01:03.514Z,69.60
2019-01-30T12:03:36.143Z,83.80
2019-01-30T12:06:08.607Z,69.70
2019-01-30T12:08:41.098Z,85.60
2019-01-30T12:11:13.550Z,84.30
2019-01-30T12:13:46.103Z,83.70
2019-01-30T12:16:18.692Z,84.70
2019-01-30T12:18:52.437Z,84.30
2019-01-30T12:21:24.872Z,83.90
2019-01-30T12:23:57.386Z,83.30
2019-01-30T12:26:31.164Z,83.10
2019-01-30T12:29:03.865Z,83.00
2019-01-30T12:31:36.416Z,84.00
2019-01-30T12:34:08.880Z,83.40
2019-01-30T12:36:41.401Z,83.50
2019-01-30T12:39:13.879Z,83.70
2019-01-30T12:44:18.748Z,70.00
2019-01-30T12:49:22.450Z,83.60
2019-01-30T12:51:54.959Z,83.50
2019-01-30T12:54:27.427Z,83.30
2019-01-30T12:56:59.919Z,83.60
2019-01-30T12:59:32.366Z,83.80
2019-01-30T13:02:05.381Z,83.70
2019-01-30T13:04:38.767Z,84.00
2019-01-30T13:07:11.620Z,84.50
2019-01-30T13:09:44.113Z,85.20
2019-01-30T13:12:16.757Z,84.40
2019-01-30T13:14:49.274Z,84.60
2019-01-30T13:17:21.790Z,84.40
2019-01-30T13:19:55.292Z,84.20
2019-01-30T13:22:27.850Z,84.00
2019-01-30T13:25:00.426Z,84.00
2019-01-30T13:27:33.788Z,82.40
2019-01-30T13:30:07.541Z,82.90
2019-01-30T13:35:12.244Z,83.10
2019-01-30T13:37:45.615Z,85.30
2019-01-30T13:40:26.393Z,82.50
2019-01-30T13:42:59.307Z,82.40
2019-01-30T13:45:32.108Z,83.00
2019-01-30T13:48:04.859Z,79.40
2019-01-30T13:50:37.358Z,83.80
2019-01-30T13:53:10.506Z,83.10
2019-01-30T13:55:43.136Z,83.60
2019-01-30T13:58:15.574Z,84.30
2019-01-30T14:00:48.120Z,84.20
2019-01-30T14:03:20.618Z,83.80
2019-01-30T14:08:26.135Z,83.60
2019-01-30T14:10:58.633Z,85.50
2019-01-30T14:13:31.140Z,83.60
2019-01-30T14:16:04.619Z,83.70
2019-01-30T14:18:37.422Z,83.80
2019-01-30T14:21:09.982Z,83.90
2019-01-30T14:26:14.064Z,84.20
2019-01-30T14:28:46.563Z,84.80
2019-01-30T14:31:19.087Z,84.80
2019-01-30T14:33:51.638Z,84.50
2019-01-30T14:36:24.179Z,84.00
2019-01-30T14:38:56.682Z,84.20
2019-01-30T14:41:29.525Z,84.50
2019-01-30T14:46:33.744Z,84.20
2019-01-30T14:49:06.374Z,84.30
2019-01-30T14:51:38.861Z,84.40
2019-01-30T14:54:11.355Z,84.60
2019-01-30T14:56:43.908Z,84.40
2019-01-30T14:59:16.488Z,84.60
2019-01-30T15:01:48.942Z,84.90
2019-01-30T15:04:21.569Z,84.30
2019-01-30T15:06:54.030Z,84.30
2019-01-30T15:09:26.583Z,84.80
2019-01-30T15:11:59.124Z,84.00
2019-01-30T15:14:31.701Z,84.50
2019-01-30T15:19:35.664Z,84.20
2019-01-30T15:22:08.428Z,84.50
2019-01-30T15:24:40.967Z,84.70
2019-01-30T15:29:44.971Z,84.00
2019-01-30T15:32:17.423Z,84.60
2019-01-30T15:34:49.881Z,84.30
2019-01-30T15:39:53.838Z,84.40
2019-01-30T15:42:26.386Z,84.40
2019-01-30T15:44:58.954Z,84.90
2019-01-30T15:47:31.438Z,85.10
2019-01-30T15:50:03.905Z,84.30
2019-01-30T15:52:36.389Z,84.80
2019-01-30T15:55:10.840Z,84.90
2019-01-30T15:57:43.286Z,84.50
2019-01-30T16:00:36.681Z,71.30
2019-01-30T16:03:09.228Z,84.20
2019-01-30T16:05:45.221Z,87.00
2019-01-30T16:08:15.368Z,84.50
2019-01-30T16:10:47.912Z,84.30
2019-01-30T16:13:20.363Z,85.30
2019-01-30T16:16:00.350Z,84.30
2019-01-30T16:18:32.845Z,85.00
2019-01-30T16:21:05.382Z,84.10
2019-01-30T16:23:38.071Z,71.20
2019-01-30T16:26:10.493Z,84.40
2019-01-30T16:28:43.051Z,83.90
2019-01-30T16:31:15.605Z,84.10
2019-01-30T16:33:48.138Z,85.20
2019-01-30T16:38:52.207Z,85.80
2019-01-30T16:41:24.723Z,84.20
2019-01-30T16:43:57.174Z,84.70
2019-01-30T16:46:29.672Z,85.20
2019-01-30T16:49:02.083Z,84.70
2019-01-30T16:51:34.683Z,84.40
2019-01-30T16:54:07.131Z,84.80
2019-01-30T16:56:39.680Z,84.80
2019-01-30T17:01:43.745Z,85.00
2019-01-30T17:04:16.282Z,85.00
2019-01-30T17:06:48.879Z,84.80
2019-01-30T17:09:21.346Z,85.10
2019-01-30T17:11:54.007Z,85.30
2019-01-30T17:17:09.208Z,85.00
2019-01-30T17:19:41.710Z,85.00
2019-01-30T17:22:14.239Z,84.70
2019-01-30T17:24:46.724Z,85.00
2019-01-30T17:27:20.831Z,84.70
2019-01-30T17:29:53.281Z,84.90
2019-01-30T17:32:25.757Z,84.80
2019-01-30T17:35:01.554Z,84.90
2019-01-30T17:37:34.159Z,85.30
2019-01-30T17:40:07.707Z,85.00
2019-01-30T17:42:40.203Z,89.90
2019-01-30T17:45:12.685Z,85.30
2019-01-30T17:47:47.535Z,85.50
2019-01-30T17:50:22.024Z,71.90
2019-01-30T17:52:55.534Z,85.20
2019-01-30T17:55:28.004Z,85.70
2019-01-30T17:58:00.495Z,85.40
2019-01-30T18:05:54.130Z,72.60
2019-01-30T18:08:26.568Z,85.40
2019-01-30T18:10:59.103Z,85.10
2019-01-30T18:13:31.673Z,85.40
2019-01-30T18:16:04.187Z,85.50
2019-01-30T18:18:36.735Z,85.20
2019-01-30T18:21:09.187Z,85.70
2019-01-30T18:23:41.688Z,85.70
2019-01-30T18:26:15.666Z,85.00
2019-01-30T18:28:48.201Z,86.10
2019-01-30T18:31:20.656Z,85.10
2019-01-30T18:33:54.021Z,85.50
2019-01-30T18:38:58.127Z,85.00
2019-01-30T18:41:30.610Z,85.30
2019-01-30T18:46:34.617Z,85.00
2019-01-30T18:49:07.144Z,85.90
2019-01-30T18:51:39.526Z,85.20
2019-01-30T18:54:12.028Z,85.00
2019-01-30T18:56:44.579Z,85.30
2019-01-30T19:01:52.194Z,85.70
2019-01-30T19:04:25.984Z,85.50
2019-01-30T19:06:58.833Z,85.00
2019-01-30T19:09:31.397Z,85.80
2019-01-30T19:12:03.893Z,85.20
2019-01-30T19:14:36.349Z,85.40
2019-01-30T19:17:08.840Z,85.60
2019-01-30T19:19:42.397Z,85.40
2019-01-30T19:22:14.861Z,85.50
2019-01-30T19:24:47.313Z,85.10
2019-01-30T19:27:19.811Z,85.20
2019-01-30T19:29:52.310Z,85.10
2019-01-30T19:32:24.847Z,85.10
2019-01-30T19:34:57.369Z,85.20
2019-01-30T19:37:29.871Z,85.40
2019-01-30T19:40:02.411Z,71.50
2019-01-30T19:45:07.223Z,84.70
2019-01-30T19:47:39.734Z,84.70
2019-01-30T19:50:14.677Z,84.50
2019-01-30T19:52:47.120Z,84.50
2019-01-30T19:55:20.527Z,83.20
2019-01-30T19:57:53.013Z,85.20
2019-01-30T20:00:30.428Z,83.50
2019-01-30T20:03:03.361Z,83.10
2019-01-30T20:05:35.839Z,83.60
2019-01-30T20:08:08.410Z,82.40
2019-01-30T20:10:40.935Z,83.10
2019-01-30T20:13:13.426Z,82.50
2019-01-30T20:15:45.972Z,82.50
2019-01-30T20:23:21.489Z,82.80
2019-01-30T20:25:53.948Z,82.30
2019-01-30T20:28:26.472Z,80.30
2019-01-30T20:31:01.229Z,82.20
2019-01-30T20:33:32.583Z,82.30
2019-01-30T20:36:05.144Z,83.20
2019-01-30T20:38:37.597Z,81.90
2019-01-30T20:41:10.144Z,82.10
2019-01-30T20:43:42.627Z,76.00
2019-01-30T20:46:15.139Z,81.90
2019-01-30T20:48:51.682Z,82.00
2019-01-30T20:51:21.186Z,81.90
2019-01-30T20:53:53.713Z,83.00
2019-01-30T20:56:26.325Z,69.50
2019-01-30T20:58:58.821Z,69.40
2019-01-30T21:01:31.397Z,69.20
2019-01-30T21:04:03.983Z,83.60
2019-01-30T21:06:36.406Z,87.40
2019-01-30T21:09:10.392Z,69.40
2019-01-30T21:11:42.894Z,69.10
2019-01-30T21:14:15.404Z,68.90
2019-01-30T21:16:48.052Z,92.70
2019-01-30T21:19:20.547Z,93.30
2019-01-30T21:21:52.962Z,92.20
2019-01-30T21:24:26.076Z,68.80
2019-01-30T21:26:58.582Z,68.70
2019-01-30T21:29:31.069Z,69.30
2019-01-30T21:32:03.564Z,69.40
2019-01-30T21:34:36.042Z,68.50
2019-01-30T21:37:08.558Z,70.10
2019-01-30T21:39:41.074Z,71.80
2019-01-30T21:42:13.590Z,72.10
2019-01-30T21:44:46.068Z,74.70
2019-01-30T21:47:18.596Z,67.60
2019-01-30T21:49:51.124Z,78.20
2019-01-30T21:52:23.644Z,67.10
2019-01-30T21:54:56.087Z,84.80
2019-01-30T21:57:28.627Z,66.60
2019-01-30T22:00:01.172Z,71.00
2019-01-30T22:02:33.693Z,69.00
2019-01-30T22:05:06.172Z,66.80
2019-01-30T22:07:39.044Z,66.70
2019-01-30T22:10:22.289Z,65.50
2019-01-30T22:12:54.568Z,83.50
2019-01-30T22:15:27.106Z,65.90
2019-01-30T22:17:59.631Z,65.40
2019-01-30T22:20:34.540Z,63.90
2019-01-30T22:23:05.775Z,63.10
2019-01-30T22:25:38.218Z,62.00
2019-01-30T22:28:10.779Z,61.90
2019-01-30T22:30:45.867Z,71.60
2019-01-30T22:35:52.813Z,69.40
2019-01-30T22:38:26.604Z,73.00
2019-01-30T22:40:59.059Z,74.20
2019-01-30T22:43:33.680Z,74.20
2019-01-30T22:46:06.216Z,74.00
2019-01-30T22:48:38.724Z,61.30
2019-01-30T22:51:11.167Z,74.50
2019-01-30T22:53:43.693Z,76.10
2019-01-30T22:56:16.165Z,74.50
2019-01-30T22:58:48.667Z,73.70
2019-01-30T23:01:35.350Z,59.30
2019-01-30T23:04:21.686Z,73.10
2019-01-30T23:07:06.068Z,72.70
2019-01-30T23:12:45.999Z,71.80
2019-01-30T23:15:23.202Z,57.70
2019-01-30T23:18:31.807Z,57.00
2019-01-30T23:21:12.187Z,56.30
2019-01-30T23:23:55.509Z,55.20
2019-01-30T23:31:47.450Z,54.60
2019-01-30T23:34:54.809Z,63.50
2019-01-30T23:40:10.532Z,63.60
2019-01-30T23:42:50.730Z,63.00
2019-01-30T23:45:34.132Z,62.70
2019-01-30T23:48:33.858Z,62.70
2019-01-30T23:54:06.320Z,53.10
2019-01-30T23:56:43.960Z,61.80
2019-01-30T23:59:30.751Z,63.30
